Atmospheric History
02/08/2018 18:23  to  2/9/2018 18:23
Change End Date:
To complete the export process:
1) Select all of the data below
2) Copy the data to the clipboard
3) Open a word processor such as Notepad
4) Paste the data into the word processor
5) Save the file

Date/Time (MST), AirTemp, RH, Dewpoint ,AvgWindSpeed, GustWindSpeed, WindDirection, PrecipType, PrecipIntensity, PrecipAccumulation, PrecipRate
02/09/2018 18:14, 10, 66, 1 ,3, 4, SW, None, None, ,  
02/09/2018 18:08, 10, 66, 1 ,3, 3, SW, None, None, ,  
02/09/2018 18:04, 10, 66, 1 ,2, 4, SW, None, None, ,  
02/09/2018 17:54, 10, 65, 1 ,4, 4, S, None, None, ,  
02/09/2018 17:53, 10, 65, 1 ,4, 4, S, None, None, ,  
02/09/2018 17:44, 10, 65, 1 ,4, 5, S, None, None, ,  
02/09/2018 17:38, 10, 65, 1 ,3, 4, SW, None, None, ,  
02/09/2018 17:34, 10, 65, 1 ,3, 4, SW, None, None, ,  
02/09/2018 17:24, 10, 64, 1 ,2, 3, S, None, None, ,  
02/09/2018 17:23, 10, 64, 1 ,2, 3, SW, Yes, , ,  
02/09/2018 17:14, 11, 63, 1 ,3, 4, S, None, None, ,  
02/09/2018 17:08, 11, 62, 0 ,3, 4, S, Yes, , ,  
02/09/2018 17:04, 11, 61, 0 ,3, 4, SW, Yes, , ,  
02/09/2018 16:54, 11, 61, 0 ,2, 4, SW, None, None, ,  
02/09/2018 16:53, 11, 61, 0 ,3, 4, SW, None, None, ,  
02/09/2018 16:44, 11, 60, 0 ,2, 2, SW, None, None, ,  
02/09/2018 16:38, 11, 59, 0 ,2, 2, SW, None, None, ,  
02/09/2018 16:34, 12, 58, 0 ,1, 2, SW, None, None, ,  
02/09/2018 16:24, 11, 58, 0 ,2, 3, SW, None, None, ,  
02/09/2018 16:24, 11, 58, 0 ,2, 3, SW, None, None, ,  
02/09/2018 16:14, 12, 57, 0 ,2, 3, W, None, None, ,  
02/09/2018 16:09, 12, 57, 0 ,2, 3, SW, None, None, ,  
02/09/2018 16:04, 12, 56, 0 ,2, 3, W, None, None, ,  
02/09/2018 15:54, 12, 56, -1 ,2, 2, W, None, None, ,  
02/09/2018 15:53, 12, 56, -1 ,2, 2, W, None, None, ,  
02/09/2018 15:44, 12, 56, -1 ,1, 3, W, None, None, ,  
02/09/2018 15:39, 11, 57, -1 ,2, 3, W, None, None, ,  
02/09/2018 15:34, 11, 57, -1 ,2, 4, W, None, None, ,  
02/09/2018 15:24, 11, 57, -1 ,2, 4, W, None, None, ,  
02/09/2018 15:23, 11, 57, -1 ,2, 4, W, None, None, ,  
02/09/2018 15:14, 11, 55, -2 ,2, 4, W, None, None, ,  
02/09/2018 15:09, 13, 54, 0 ,2, 2, W, None, None, ,  
02/09/2018 15:04, 13, 54, 0 ,0, 3, NW, None, None, ,  
02/09/2018 14:54, 14, 52, 0 ,3, 4, NW, None, None, ,  
02/09/2018 14:53, 14, 52, 0 ,3, 4, NW, None, None, ,  
02/09/2018 14:44, 16, 54, 2 ,2, 2, NW, None, None, ,  
02/09/2018 14:38, 15, 56, 2 ,1, 2, W, None, None, ,  
02/09/2018 14:33, 13, 58, 1 ,1, 4, W, None, None, ,  
02/09/2018 14:24, 11, 58, -1 ,3, 4, W, None, None, ,  
02/09/2018 14:23, 11, 58, -1 ,3, 4, W, None, None, ,  
02/09/2018 14:13, 10, 57, -2 ,4, 4, W, None, None, ,  
02/09/2018 14:08, 11, 55, -2 ,2, 4, W, Yes, , ,  
02/09/2018 14:03, 11, 53, -2 ,3, 4, W, None, None, ,  
02/09/2018 13:53, 17, 49, 1 ,1, 2, NW, None, None, ,  
02/09/2018 13:53, 17, 49, 1 ,1, 2, NW, None, None, ,  
02/09/2018 13:43, 17, 50, 2 ,1, 3, N, None, None, ,  
02/09/2018 13:38, 16, 50, 1 ,2, 3, N, None, None, ,  
02/09/2018 13:33, 16, 50, 1 ,1, 2, NE, None, None, ,  
02/09/2018 13:24, 16, 52, 2 ,1, 5, N, None, None, ,  
02/09/2018 13:23, 16, 52, 2 ,1, 5, N, None, None, ,  
02/09/2018 13:13, 15, 54, 2 ,4, 5, NW, None, None, ,  
02/09/2018 13:09, 14, 55, 1 ,2, 3, NW, None, None, ,  
02/09/2018 13:03, 12, 56, 0 ,2, 4, NW, None, None, ,  
02/09/2018 12:54, 11, 57, -1 ,2, 3, W, None, None, ,  
02/09/2018 12:53, 11, 57, -1 ,2, 3, W, None, None, ,  
02/09/2018 12:43, 13, 57, 1 ,2, 4, W, None, None, ,  
02/09/2018 12:39, 14, 58, 2 ,2, 4, NW, None, None, ,  
02/09/2018 12:33, 13, 60, 2 ,2, 4, NW, None, None, ,  
02/09/2018 12:24, 11, 61, 0 ,2, 3, NW, None, None, ,  
02/09/2018 12:23, 11, 61, 0 ,2, 3, NW, None, None, ,  
02/09/2018 12:13, 12, 60, 1 ,2, 4, NW, None, None, ,  
02/09/2018 12:09, 12, 61, 2 ,2, 4, NW, None, None, ,  
02/09/2018 12:03, 12, 61, 1 ,3, 4, NW, None, None, ,  
02/09/2018 11:54, 11, 63, 1 ,4, 6, NW, None, None, ,  
02/09/2018 11:53, 11, 63, 1 ,4, 6, NW, None, None, ,  
02/09/2018 11:43, 9, 63, -1 ,4, 4, NW, None, None, ,  
02/09/2018 11:39, 8, 63, -2 ,4, 4, W, None, None, ,  
02/09/2018 11:33, 10, 63, 0 ,2, 4, NW, None, None, ,  
02/09/2018 11:24, 10, 66, 1 ,2, 3, NW, None, None, ,  
02/09/2018 11:23, 9, 67, 1 ,2, 3, NW, None, None, ,  
02/09/2018 11:13, 7, 69, -1 ,3, 4, W, None, None, ,  
02/09/2018 11:08, 7, 70, -1 ,2, 5, W, None, None, ,  
02/09/2018 11:02, 6, 72, -1 ,4, 5, W, None, None, ,  
02/09/2018 10:53, 6, 72, -1 ,4, 6, W, None, None, ,  
02/09/2018 10:52, 6, 72, -1 ,4, 6, W, None, None, ,  
02/09/2018 10:42, 6, 71, -1 ,4, 5, W, None, None, ,  
02/09/2018 10:38, 6, 72, -1 ,4, 5, W, None, None, ,  
02/09/2018 10:32, 6, 71, -1 ,4, 5, W, None, None, ,  
02/09/2018 10:23, 6, 71, -1 ,4, 6, W, None, None, ,  
02/09/2018 10:22, 6, 71, -1 ,4, 6, W, None, None, ,  
02/09/2018 10:12, 6, 72, -1 ,5, 7, NW, None, None, ,  
02/09/2018 10:08, 6, 73, -1 ,4, 7, NW, Yes, , ,  
02/09/2018 10:02, 5, 73, -1 ,7, 7, NW, Yes, , ,  
02/09/2018 09:53, 5, 74, -1 ,7, 7, NW, Yes, , ,  
02/09/2018 09:52, 5, 74, -2 ,6, 7, NW, Yes, , ,  
02/09/2018 09:42, 5, 74, -2 ,7, 7, W, None, None, ,  
02/09/2018 09:38, 5, 74, -1 ,7, 7, W, None, None, ,  
02/09/2018 09:32, 5, 74, -1 ,6, 7, W, None, None, ,  
02/09/2018 09:23, 5, 74, -1 ,6, 6, W, None, None, ,  
02/09/2018 09:22, 5, 74, -1 ,6, 6, W, None, None, ,  
02/09/2018 09:12, 5, 73, -1 ,5, 6, NW, None, None, ,  
02/09/2018 09:08, 6, 72, -1 ,5, 6, NW, None, None, ,  
02/09/2018 09:02, 6, 72, -1 ,3, 5, NW, None, None, ,  
02/09/2018 08:53, 5, 71, -2 ,4, 6, NW, Yes, , ,  
02/09/2018 08:52, 5, 71, -2 ,5, 6, NW, None, None, ,  
02/09/2018 08:42, 6, 70, -2 ,4, 6, NW, Yes, , ,  
02/09/2018 08:38, 6, 70, -2 ,4, 6, NW, Yes, , ,  
02/09/2018 08:32, 5, 69, -2 ,1, 6, NW, Yes, , ,  
02/09/2018 08:23, 5, 69, -2 ,4, 7, NW, Yes, , ,  
02/09/2018 08:22, 6, 69, -2 ,4, 11, NW, Yes, , ,  
02/09/2018 08:12, 6, 68, -3 ,4, 19, E, Yes, , ,  
02/09/2018 08:07, 5, 67, -3 ,9, 19, E, Yes, , ,  
02/09/2018 08:02, 5, 67, -3 ,11, 24, E, None, None, ,  
02/09/2018 07:52, 5, 66, -3 ,14, 22, E, Yes, , ,  
02/09/2018 07:52, 5, 66, -3 ,14, 22, E, Yes, , ,  
02/09/2018 07:42, 5, 66, -4 ,14, 20, SE, None, None, ,  
02/09/2018 07:38, 5, 66, -3 ,14, 20, SE, Yes, , ,  
02/09/2018 07:32, 6, 65, -4 ,12, 21, E, Yes, , ,  
02/09/2018 07:25, 5, 64, -4 ,16, 26, SE, None, None, ,  
02/09/2018 07:21, 6, 64, -4 ,16, 26, SE, None, None, ,  
02/09/2018 07:11, 5, 63, -5 ,17, 24, SE, None, None, ,  
02/09/2018 07:10, 6, 62, -4 ,19, 24, SE, None, None, ,  
02/09/2018 07:01, 7, 62, -3 ,6, 17, E, None, None, ,  
02/09/2018 06:56, 6, 62, -4 ,10, 22, SE, Yes, , ,  
02/09/2018 06:51, 6, 62, -4 ,14, 23, SE, None, None, ,  
02/09/2018 06:41, 6, 62, -5 ,14, 25, SE, None, None, ,  
02/09/2018 06:41, 6, 62, -5 ,14, 25, SE, None, None, ,  
02/09/2018 06:31, 6, 63, -4 ,16, 26, SE, None, None, ,  
02/09/2018 06:26, 5, 62, -5 ,19, 26, SE, None, None, ,  
02/09/2018 06:21, 6, 62, -4 ,16, 26, E, None, None, ,  
02/09/2018 06:11, 6, 62, -4 ,15, 25, E, None, None, ,  
02/09/2018 06:11, 6, 62, -4 ,15, 25, E, None, None, ,  
02/09/2018 06:01, 5, 63, -4 ,13, 23, E, None, None, ,  
02/09/2018 05:56, 6, 63, -4 ,17, 23, SE, None, None, ,  
02/09/2018 05:51, 5, 63, -5 ,17, 23, SE, None, None, ,  
02/09/2018 05:42, 6, 62, -4 ,18, 26, SE, None, None, ,  
02/09/2018 05:41, 6, 62, -4 ,16, 26, SE, None, None, ,  
02/09/2018 05:31, 6, 61, -4 ,14, 21, SE, None, None, ,  
02/09/2018 05:26, 6, 62, -4 ,10, 23, E, None, None, ,  
02/09/2018 05:21, 6, 62, -4 ,12, 24, E, None, None, ,  
02/09/2018 05:11, 6, 62, -4 ,19, 29, E, None, None, ,  
02/09/2018 05:11, 6, 62, -4 ,19, 29, E, None, None, ,  
02/09/2018 05:01, 6, 61, -5 ,16, 25, SE, None, None, ,  
02/09/2018 04:56, 6, 61, -5 ,16, 26, E, None, None, ,  
02/09/2018 04:51, 6, 61, -5 ,14, 28, SE, None, None, ,  
02/09/2018 04:41, 5, 61, -5 ,16, 24, E, None, None, ,  
02/09/2018 04:41, 5, 61, -5 ,17, 24, E, None, None, ,  
02/09/2018 04:31, 6, 61, -5 ,15, 29, E, None, None, ,  
02/09/2018 04:26, 6, 60, -5 ,21, 29, SE, None, None, ,  
02/09/2018 04:21, 6, 61, -5 ,15, 27, SE, None, None, ,  
02/09/2018 04:11, 5, 62, -5 ,19, 31, E, None, None, ,  
02/09/2018 04:11, 5, 62, -5 ,21, 31, E, None, None, ,  
02/09/2018 04:01, 5, 63, -5 ,24, 29, E, None, None, ,  
02/09/2018 03:56, 5, 62, -5 ,24, 29, SE, None, None, ,  
02/09/2018 03:51, 5, 63, -4 ,15, 29, E, None, None, ,  
02/09/2018 03:41, 6, 63, -4 ,22, 29, SE, None, None, ,  
02/09/2018 03:40, 6, 63, -4 ,20, 29, E, None, None, ,  
02/09/2018 03:30, 6, 64, -4 ,17, 31, SE, None, None, ,  
02/09/2018 03:26, 6, 65, -3 ,21, 31, SE, None, None, ,  
02/09/2018 03:20, 6, 66, -3 ,23, 32, E, None, None, ,  
02/09/2018 03:11, 7, 68, -1 ,17, 33, SE, None, None, ,  
02/09/2018 03:10, 7, 69, -1 ,19, 33, SE, None, None, ,  
02/09/2018 03:00, 6, 69, -2 ,19, 32, SE, None, None, ,  
02/09/2018 02:56, 6, 69, -3 ,21, 32, E, None, None, ,  
02/09/2018 02:50, 7, 69, -1 ,22, 36, SE, None, None, ,  
02/09/2018 02:41, 6, 70, -1 ,17, 29, SE, None, None, ,  
02/09/2018 02:40, 6, 70, -1 ,20, 29, E, None, None, ,  
02/09/2018 02:30, 5, 72, -2 ,11, 17, E, None, None, ,  
02/09/2018 02:26, 5, 72, -2 ,7, 24, E, Yes, , ,  
02/09/2018 02:20, 5, 73, -1 ,16, 34, E, Yes, , ,  
02/09/2018 02:11, 5, 73, -1 ,17, 33, E, Yes, , ,  
02/09/2018 02:10, 5, 73, -1 ,19, 33, SE, Yes, , ,  
02/09/2018 02:00, 6, 78, 1 ,6, 9, N, Yes, , ,  
02/09/2018 01:56, 6, 77, 1 ,5, 12, N, Yes, , ,  
02/09/2018 01:50, 6, 77, 0 ,7, 21, SW, Yes, , ,  
02/09/2018 01:41, 5, 77, 0 ,7, 16, SE, Yes, , ,  
02/09/2018 01:40, 5, 77, 0 ,4, 16, S, Yes, , ,  
02/09/2018 01:30, 5, 77, -1 ,11, 15, NE, Yes, , ,  
02/09/2018 01:26, 5, 77, -1 ,7, 13, NE, Yes, , ,  
02/09/2018 01:20, 6, 76, 0 ,7, 21, N, Yes, , ,  
02/09/2018 01:11, 7, 76, 1 ,14, 27, E, Yes, , ,  
02/09/2018 01:10, 6, 76, 0 ,12, 27, NE, Yes, , ,  
02/09/2018 01:00, 7, 75, 1 ,5, 17, S, Yes, , ,  
02/09/2018 00:57, 6, 74, 0 ,6, 22, E, Yes, , ,  
02/09/2018 00:50, 6, 72, -1 ,12, 40, E, Yes, , ,  
02/09/2018 00:41, 6, 68, -2 ,17, 33, E, Yes, , ,  
02/09/2018 00:40, 6, 68, -2 ,20, 37, E, Yes, , ,  
02/09/2018 00:30, 6, 69, -2 ,24, 35, SE, None, None, ,  
02/09/2018 00:26, 7, 69, -1 ,21, 35, SE, None, None, ,  
02/09/2018 00:20, 7, 69, -1 ,21, 32, SE, None, None, ,  
02/09/2018 00:11, 7, 69, -1 ,14, 27, SE, Yes, , ,  
02/09/2018 00:10, 6, 69, -1 ,11, 27, SE, None, None, ,  
02/08/2018 23:59, 6, 71, -1 ,9, 24, E, Yes, , ,  
02/08/2018 23:57, 6, 70, -2 ,2, 24, NE, Yes, , ,  
02/08/2018 23:49, 6, 68, -2 ,14, 24, E, Yes, , ,  
02/08/2018 23:42, 7, 63, -3 ,11, 19, E, None, None, ,  
02/08/2018 23:39, 7, 63, -3 ,10, 30, E, None, None, ,  
02/08/2018 23:29, 7, 63, -3 ,20, 43, E, None, None, ,  
02/08/2018 23:26, 6, 63, -3 ,24, 43, NE, None, None, ,  
02/08/2018 23:19, 8, 64, -2 ,27, 43, E, None, None, ,  
02/08/2018 23:12, 9, 59, -2 ,27, 42, E, None, None, ,  
02/08/2018 23:09, 9, 57, -3 ,29, 45, E, None, None, ,  
02/08/2018 22:59, 10, 58, -2 ,26, 45, SE, None, None, ,  
02/08/2018 22:56, 11, 58, -1 ,19, 45, SE, None, None, ,  
02/08/2018 22:49, 10, 59, -1 ,25, 43, SE, None, None, ,  
02/08/2018 22:41, 9, 60, -2 ,24, 42, E, None, None, ,  
02/08/2018 22:39, 9, 60, -2 ,27, 42, E, None, None, ,  
02/08/2018 22:29, 11, 61, 0 ,28, 40, E, None, None, ,  
02/08/2018 22:26, 10, 61, -1 ,24, 41, E, None, None, ,  
02/08/2018 22:19, 10, 59, -1 ,29, 41, E, None, None, ,  
02/08/2018 22:11, 11, 58, 0 ,18, 37, E, None, None, ,  
02/08/2018 22:09, 12, 58, 0 ,17, 40, E, None, None, ,  
02/08/2018 21:59, 11, 58, -1 ,27, 37, E, None, None, ,  
02/08/2018 21:56, 11, 58, -1 ,28, 37, E, None, None, ,  
02/08/2018 21:49, 11, 58, -1 ,24, 32, SE, None, None, ,  
02/08/2018 21:41, 14, 58, 2 ,17, 42, E, None, None, ,  
02/08/2018 21:39, 12, 58, 0 ,18, 42, E, None, None, ,  
02/08/2018 21:29, 12, 59, 1 ,21, 31, SE, None, None, ,  
02/08/2018 21:26, 12, 59, 1 ,13, 29, NE, None, None, ,  
02/08/2018 21:19, 12, 61, 1 ,9, 34, E, None, None, ,  
02/08/2018 21:10, 12, 63, 2 ,21, 29, E, None, None, ,  
02/08/2018 21:09, 11, 62, 1 ,14, 26, E, None, None, ,  
02/08/2018 20:59, 12, 60, 1 ,17, 27, E, None, None, ,  
02/08/2018 20:56, 13, 60, 1 ,15, 24, E, None, None, ,  
02/08/2018 20:49, 13, 59, 2 ,10, 16, E, None, None, ,  
02/08/2018 20:41, 14, 60, 3 ,4, 18, NW, None, None, ,  
02/08/2018 20:39, 14, 60, 3 ,6, 18, N, None, None, ,  
02/08/2018 20:29, 13, 59, 2 ,4, 22, N, None, None, ,  
02/08/2018 20:26, 13, 59, 1 ,13, 22, SE, None, None, ,  
02/08/2018 20:18, 13, 59, 1 ,14, 34, E, None, None, ,  
02/08/2018 20:11, 14, 59, 2 ,19, 34, SE, None, None, ,  
02/08/2018 20:08, 13, 59, 2 ,20, 32, E, None, None, ,  
02/08/2018 19:58, 15, 60, 4 ,12, 26, SE, None, None, ,  
02/08/2018 19:56, 16, 61, 5 ,2, 9, SE, None, None, ,  
02/08/2018 19:48, 16, 64, 6 ,5, 14, SE, None, None, ,  
02/08/2018 19:42, 16, 63, 6 ,7, 14, SE, None, None, ,  
02/08/2018 19:38, 16, 65, 7 ,2, 9, W, None, None, ,  
02/08/2018 19:28, 17, 66, 8 ,8, 11, W, None, None, ,  
02/08/2018 19:26, 17, 66, 8 ,8, 11, W, None, None, ,  
02/08/2018 19:18, 17, 63, 7 ,7, 11, W, None, None, ,  
02/08/2018 19:10, 17, 63, 6 ,4, 12, S, None, None, ,  
02/08/2018 19:08, 17, 63, 7 ,4, 15, NW, None, None, ,  
02/08/2018 18:58, 16, 62, 6 ,16, 29, SE, None, None, ,  
02/08/2018 18:56, 16, 62, 6 ,14, 29, SE, None, None, ,  
02/08/2018 18:48, 18, 63, 8 ,7, 22, S, None, None, ,  
02/08/2018 18:41, 18, 63, 8 ,1, 17, N, None, None, ,  
02/08/2018 18:38, 19, 63, 8 ,2, 17, N, None, None, ,  
02/08/2018 18:28, 19, 64, 9 ,6, 29, N, None, None, ,  
02/08/2018 18:24, 18, 63, 8 ,17, 29, SE, None, None, ,  
Change End Date:

Copyright © 1998-2015 Vaisala, Inc.
All Rights Reserved
Send comments about the data to:
SCAN Web ® is a registered trademark of Vaisala, Inc.
SCAN Web Version 6.0